createdAt,value
2018-04-08T00:01:10.971Z,4.40
2018-04-08T00:03:38.479Z,4.27
2018-04-08T00:06:06.047Z,4.30
2018-04-08T00:08:33.587Z,4.77
2018-04-08T00:11:02.031Z,4.80
2018-04-08T00:13:30.491Z,4.80
2018-04-08T00:15:58.121Z,4.57
2018-04-08T00:18:25.649Z,4.93
2018-04-08T00:20:53.215Z,5.07
2018-04-08T00:23:20.744Z,4.83
2018-04-08T00:25:48.284Z,5.20
2018-04-08T00:28:15.795Z,5.10
2018-04-08T00:30:43.302Z,4.70
2018-04-08T00:33:10.851Z,4.50
2018-04-08T00:35:39.138Z,4.93
2018-04-08T00:38:07.430Z,5.20
2018-04-08T00:40:35.836Z,5.20
2018-04-08T00:43:03.435Z,5.17
2018-04-08T00:45:30.981Z,5.10
2018-04-08T00:47:58.607Z,5.27
2018-04-08T00:50:26.194Z,5.67
2018-04-08T00:52:53.839Z,4.67
2018-04-08T00:55:21.395Z,4.77
2018-04-08T00:57:48.965Z,5.23
2018-04-08T01:00:16.520Z,4.70
2018-04-08T01:02:44.033Z,5.57
2018-04-08T01:05:11.558Z,5.70
2018-04-08T01:07:39.069Z,5.13
2018-04-08T01:10:06.703Z,5.50
2018-04-08T01:12:34.266Z,5.57
2018-04-08T01:15:01.825Z,5.27
2018-04-08T01:17:29.432Z,5.70
2018-04-08T01:19:56.991Z,5.77
2018-04-08T01:22:24.505Z,5.70
2018-04-08T01:24:52.427Z,5.80
2018-04-08T01:27:19.984Z,5.83
2018-04-08T01:29:48.283Z,5.63
2018-04-08T01:32:16.674Z,6.53
2018-04-08T01:34:44.195Z,5.93
2018-04-08T01:37:11.747Z,5.80
2018-04-08T01:39:39.271Z,4.73
2018-04-08T01:42:07.715Z,6.03
2018-04-08T01:44:35.308Z,5.30
2018-04-08T01:47:03.643Z,5.50
2018-04-08T01:49:31.199Z,5.80
2018-04-08T01:51:59.576Z,5.50
2018-04-08T01:54:28.651Z,6.17
2018-04-08T01:56:56.269Z,6.13
2018-04-08T01:59:24.573Z,5.80
2018-04-08T02:01:52.131Z,6.13
2018-04-08T02:04:20.493Z,5.43
2018-04-08T02:06:48.015Z,5.80
2018-04-08T02:09:15.556Z,5.97
2018-04-08T02:11:43.832Z,5.33
2018-04-08T02:14:11.340Z,5.80
2018-04-08T02:16:38.871Z,5.53
2018-04-08T02:19:06.403Z,5.70
2018-04-08T02:21:33.996Z,5.97
2018-04-08T02:24:01.653Z,6.20
2018-04-08T02:26:29.249Z,6.27
2018-04-08T02:28:57.584Z,6.00
2018-04-08T02:31:25.117Z,6.10
2018-04-08T02:33:52.634Z,6.03
2018-04-08T02:36:20.215Z,5.83
2018-04-08T02:38:47.730Z,5.73
2018-04-08T02:41:15.248Z,6.50
2018-04-08T02:43:42.793Z,6.30
2018-04-08T02:46:11.062Z,6.13
2018-04-08T02:48:38.600Z,5.80
2018-04-08T02:51:06.166Z,5.87
2018-04-08T02:53:33.788Z,5.70
2018-04-08T02:56:02.123Z,6.20
2018-04-08T02:58:29.769Z,5.67
2018-04-08T03:00:57.292Z,5.93
2018-04-08T03:03:24.858Z,5.97
2018-04-08T03:05:52.370Z,5.83
2018-04-08T03:08:19.990Z,6.30
2018-04-08T03:10:47.564Z,6.33
2018-04-08T03:13:15.062Z,5.83
2018-04-08T03:15:42.628Z,5.80
2018-04-08T03:18:10.136Z,6.07
2018-04-08T03:20:38.447Z,6.10
2018-04-08T03:23:05.983Z,6.10
2018-04-08T03:25:34.367Z,5.60
2018-04-08T03:28:01.935Z,5.77
2018-04-08T03:30:30.291Z,6.20
2018-04-08T03:32:58.696Z,6.17
2018-04-08T03:35:26.226Z,5.63
2018-04-08T03:37:53.754Z,5.73
2018-04-08T03:40:21.331Z,5.93
2018-04-08T03:42:49.685Z,5.97
2018-04-08T03:45:17.202Z,6.07
2018-04-08T03:47:45.505Z,5.90
2018-04-08T03:50:13.024Z,7.00
2018-04-08T03:52:40.554Z,5.77
2018-04-08T03:55:08.068Z,5.80
2018-04-08T03:57:35.663Z,5.47
2018-04-08T04:00:03.296Z,5.80
2018-04-08T04:02:30.893Z,6.10
2018-04-08T04:04:58.941Z,5.90
2018-04-08T04:07:26.491Z,6.27
2018-04-08T04:09:54.046Z,6.20
2018-04-08T04:12:21.608Z,5.93
2018-04-08T04:14:49.950Z,6.30
2018-04-08T04:17:17.458Z,6.10
2018-04-08T04:19:56.835Z,5.67
2018-04-08T04:22:36.131Z,6.50
2018-04-08T04:25:19.327Z,5.70
2018-04-08T04:27:46.875Z,5.73
2018-04-08T04:30:15.175Z,6.50
2018-04-08T04:32:43.454Z,6.33
2018-04-08T04:35:11.752Z,6.00
2018-04-08T04:37:40.076Z,6.27
2018-04-08T04:40:07.595Z,6.17
2018-04-08T04:42:35.915Z,6.73
2018-04-08T04:45:03.475Z,6.13
2018-04-08T04:47:31.155Z,6.40
2018-04-08T04:49:58.703Z,5.90
2018-04-08T04:52:27.002Z,6.70
2018-04-08T04:54:55.275Z,6.03
2018-04-08T04:57:23.580Z,6.03
2018-04-08T04:59:51.851Z,6.37
2018-04-08T05:02:19.725Z,6.70
2018-04-08T05:04:47.242Z,6.27
2018-04-08T05:07:14.754Z,6.70
2018-04-08T05:09:42.286Z,6.03
2018-04-08T05:12:09.797Z,6.27
2018-04-08T05:14:37.440Z,6.30
2018-04-08T05:17:05.022Z,5.70
2018-04-08T05:19:32.647Z,6.47
2018-04-08T05:22:00.281Z,6.53
2018-04-08T05:24:27.838Z,6.53
2018-04-08T05:26:55.371Z,6.63
2018-04-08T05:29:22.904Z,7.20
2018-04-08T05:31:50.471Z,6.90
2018-04-08T05:34:18.845Z,6.83
2018-04-08T05:36:46.383Z,6.13
2018-04-08T05:39:13.900Z,6.53
2018-04-08T05:41:41.427Z,6.80
2018-04-08T05:44:08.951Z,6.77
2018-04-08T05:46:36.483Z,6.27
2018-04-08T05:49:04.035Z,6.97
2018-04-08T05:51:31.730Z,6.57
2018-04-08T05:53:59.291Z,6.20
2018-04-08T05:56:26.843Z,6.80
2018-04-08T05:58:54.354Z,6.97
2018-04-08T06:01:22.371Z,6.70
2018-04-08T06:03:50.717Z,6.23
2018-04-08T06:06:18.233Z,6.83
2018-04-08T06:08:46.536Z,7.40
2018-04-08T06:11:14.807Z,7.00
2018-04-08T06:13:43.103Z,7.07
2018-04-08T06:16:11.827Z,6.87
2018-04-08T06:18:39.357Z,6.57
2018-04-08T06:21:06.867Z,6.87
2018-04-08T06:23:34.462Z,6.53
2018-04-08T06:26:02.912Z,7.07
2018-04-08T06:28:30.475Z,6.73
2018-04-08T06:30:58.868Z,6.60
2018-04-08T06:33:26.411Z,6.53
2018-04-08T06:35:53.949Z,7.00
2018-04-08T06:38:21.459Z,6.40
2018-04-08T06:40:48.988Z,7.00
2018-04-08T06:43:16.514Z,6.43
2018-04-08T06:45:44.805Z,6.53
2018-04-08T06:48:13.094Z,7.07
2018-04-08T06:50:41.394Z,7.20
2018-04-08T06:53:08.947Z,6.73
2018-04-08T06:55:36.506Z,6.73
2018-04-08T06:58:04.091Z,6.70
2018-04-08T07:00:32.383Z,6.50
2018-04-08T07:03:00.808Z,6.53
2018-04-08T07:05:28.374Z,6.53
2018-04-08T07:07:55.927Z,6.67
2018-04-08T07:10:24.210Z,7.23
2018-04-08T07:12:52.558Z,7.40
2018-04-08T07:15:20.178Z,6.30
2018-04-08T07:17:47.720Z,6.47
2018-04-08T07:20:15.227Z,7.10
2018-04-08T07:22:42.741Z,6.70
2018-04-08T07:25:10.295Z,6.37
2018-04-08T07:27:37.799Z,6.53
2018-04-08T07:30:05.424Z,7.30
2018-04-08T07:32:35.617Z,7.10
2018-04-08T07:35:03.269Z,6.70
2018-04-08T07:37:30.898Z,6.43
2018-04-08T07:39:58.546Z,6.73
2018-04-08T07:42:26.183Z,7.27
2018-04-08T07:44:53.733Z,6.83
2018-04-08T07:47:21.336Z,6.87
2018-04-08T07:49:48.894Z,7.37
2018-04-08T07:52:16.515Z,7.63
2018-04-08T07:54:44.793Z,6.93
2018-04-08T07:57:13.083Z,7.23
2018-04-08T07:59:41.460Z,6.40
2018-04-08T08:02:08.990Z,7.07
2018-04-08T08:04:36.519Z,6.83
2018-04-08T08:07:05.160Z,6.57
2018-04-08T08:09:32.781Z,6.73
2018-04-08T08:12:00.459Z,6.60
2018-04-08T08:14:28.037Z,6.43
2018-04-08T08:16:56.312Z,5.93
2018-04-08T08:19:24.619Z,6.57
2018-04-08T08:21:52.965Z,6.87
2018-04-08T08:24:20.642Z,6.90
2018-04-08T08:26:48.168Z,6.60
2018-04-08T08:29:15.695Z,5.87
2018-04-08T08:31:43.231Z,6.30
2018-04-08T08:34:10.787Z,6.47
2018-04-08T08:36:38.292Z,6.90
2018-04-08T08:39:06.695Z,6.47
2018-04-08T08:41:34.251Z,6.13
2018-04-08T08:44:01.851Z,6.50
2018-04-08T08:46:30.224Z,6.40
2018-04-08T08:48:57.743Z,6.63
2018-04-08T08:51:25.275Z,7.00
2018-04-08T08:53:52.798Z,6.60
2018-04-08T08:56:20.352Z,6.47
2018-04-08T08:58:47.873Z,6.00
2018-04-08T09:01:15.432Z,6.73
2018-04-08T09:03:42.955Z,6.90
2018-04-08T09:06:10.478Z,6.87
2018-04-08T09:08:38.005Z,6.83
2018-04-08T09:11:05.580Z,7.50
2018-04-08T09:13:33.139Z,6.33
2018-04-08T09:16:00.716Z,7.10
2018-04-08T09:18:28.283Z,7.07
2018-04-08T09:23:56.970Z,6.77
2018-04-08T09:26:24.487Z,6.83
2018-04-08T09:28:52.886Z,7.03
2018-04-08T09:31:20.403Z,7.43
2018-04-08T09:33:48.760Z,7.10
2018-04-08T09:36:16.380Z,7.47
2018-04-08T09:38:43.859Z,7.40
2018-04-08T09:41:12.217Z,7.30
2018-04-08T09:43:39.721Z,8.23
2018-04-08T09:46:08.011Z,7.50
2018-04-08T09:48:36.335Z,7.30
2018-04-08T09:51:04.752Z,7.27
2018-04-08T09:53:33.443Z,8.10
2018-04-08T09:56:01.082Z,7.17
2018-04-08T09:58:28.732Z,8.20
2018-04-08T10:03:55.302Z,8.97
2018-04-08T10:06:22.944Z,8.50
2018-04-08T10:08:50.486Z,8.43
2018-04-08T10:11:18.041Z,9.00
2018-04-08T10:13:45.598Z,8.43
2018-04-08T10:16:13.875Z,8.67
2018-04-08T10:18:41.410Z,8.10
2018-04-08T10:21:08.919Z,7.43
2018-04-08T10:23:37.189Z,8.60
2018-04-08T10:26:04.748Z,9.23
2018-04-08T10:28:33.227Z,9.03
2018-04-08T10:31:00.791Z,8.52
2018-04-08T10:33:28.391Z,8.85
2018-04-08T10:35:55.937Z,8.57
2018-04-08T10:38:23.519Z,9.00
2018-04-08T10:40:51.168Z,7.82
2018-04-08T10:43:18.749Z,9.90
2018-04-08T10:45:46.291Z,8.63
2018-04-08T10:48:14.595Z,8.45
2018-04-08T10:50:42.131Z,9.57
2018-04-08T10:53:09.654Z,10.60
2018-04-08T10:55:37.398Z,9.57
2018-04-08T10:58:05.773Z,9.98
2018-04-08T11:00:34.312Z,9.57
2018-04-08T11:03:06.455Z,10.18
2018-04-08T11:05:34.044Z,9.88
2018-04-08T11:08:01.679Z,10.48
2018-04-08T11:10:30.042Z,31.73
2018-04-08T11:12:57.662Z,13.13
2018-04-08T11:15:25.182Z,9.35
2018-04-08T11:17:52.715Z,10.60
2018-04-08T11:20:20.251Z,11.05
2018-04-08T11:22:47.783Z,9.45
2018-04-08T11:25:16.164Z,10.35
2018-04-08T11:27:43.711Z,12.77
2018-04-08T11:30:11.987Z,9.57
2018-04-08T11:32:40.287Z,8.98
2018-04-08T11:35:08.590Z,9.80
2018-04-08T11:37:36.147Z,9.52
2018-04-08T11:40:04.495Z,9.52
2018-04-08T11:42:32.060Z,10.07
2018-04-08T11:44:59.669Z,9.15
2018-04-08T11:47:27.987Z,9.40
2018-04-08T11:49:55.915Z,9.70
2018-04-08T11:52:24.224Z,10.10
2018-04-08T11:54:51.775Z,10.13
2018-04-08T11:57:19.688Z,10.30
2018-04-08T11:59:47.963Z,9.48
2018-04-08T12:02:15.499Z,10.50
2018-04-08T12:04:43.017Z,9.38
2018-04-08T12:07:11.294Z,8.57
2018-04-08T12:09:39.591Z,8.95
2018-04-08T12:12:07.872Z,9.13
2018-04-08T12:14:36.187Z,9.07
2018-04-08T12:17:03.708Z,8.57
2018-04-08T12:19:31.322Z,9.02
2018-04-08T12:21:58.867Z,8.27
2018-04-08T12:24:26.383Z,9.48
2018-04-08T12:26:54.543Z,9.15
2018-04-08T12:29:22.879Z,8.52
2018-04-08T12:31:50.458Z,8.60
2018-04-08T12:34:17.978Z,9.52
2018-04-08T12:36:45.572Z,8.30
2018-04-08T12:39:13.082Z,8.48
2018-04-08T12:41:40.606Z,8.98
2018-04-08T12:44:08.132Z,9.00
2018-04-08T12:46:35.752Z,8.55
2018-04-08T12:49:03.364Z,8.80
2018-04-08T12:51:30.930Z,7.97
2018-04-08T12:53:58.981Z,7.70
2018-04-08T12:56:27.232Z,8.15
2018-04-08T12:58:55.506Z,8.45
2018-04-08T13:01:23.079Z,8.38
2018-04-08T13:03:50.625Z,8.30
2018-04-08T13:06:18.953Z,8.65
2018-04-08T13:08:47.232Z,7.90
2018-04-08T13:11:14.769Z,6.75
2018-04-08T13:13:42.283Z,7.75
2018-04-08T13:16:10.561Z,7.18
2018-04-08T13:18:38.084Z,6.80
2018-04-08T13:21:05.595Z,7.57
2018-04-08T13:23:33.271Z,7.30
2018-04-08T13:26:00.962Z,7.45
2018-04-08T13:28:29.344Z,7.10
2018-04-08T13:30:57.626Z,7.15
2018-04-08T13:33:25.156Z,6.62
2018-04-08T13:35:52.688Z,6.12
2018-04-08T13:38:21.011Z,6.62
2018-04-08T13:40:48.600Z,6.82
2018-04-08T13:43:16.116Z,6.60
2018-04-08T13:45:43.662Z,7.12
2018-04-08T13:48:11.176Z,6.07
2018-04-08T13:50:38.686Z,6.32
2018-04-08T13:53:06.260Z,6.47
2018-04-08T13:55:33.840Z,5.78
2018-04-08T13:58:01.726Z,5.60
2018-04-08T14:00:29.380Z,5.50
2018-04-08T14:02:56.955Z,5.10
2018-04-08T14:05:24.493Z,5.95
2018-04-08T14:07:52.007Z,6.05
2018-04-08T14:10:19.568Z,5.37
2018-04-08T14:12:47.875Z,5.53
2018-04-08T14:15:15.384Z,5.62
2018-04-08T14:17:42.921Z,5.37
2018-04-08T14:20:10.437Z,6.10
2018-04-08T14:22:37.964Z,5.22
2018-04-08T14:25:06.299Z,6.47
2018-04-08T14:27:33.944Z,5.90
2018-04-08T14:30:01.581Z,5.32
2018-04-08T14:32:29.164Z,4.82
2018-04-08T14:34:57.475Z,4.47
2018-04-08T14:37:25.002Z,4.32
2018-04-08T14:39:52.507Z,3.72
2018-04-08T14:42:20.838Z,4.78
2018-04-08T14:44:48.376Z,4.15
2018-04-08T14:47:16.694Z,4.15
2018-04-08T14:49:44.199Z,2.92
2018-04-08T14:52:11.700Z,2.95
2018-04-08T14:54:40.001Z,3.40
2018-04-08T14:57:07.556Z,2.70
2018-04-08T14:59:35.890Z,3.00
2018-04-08T15:02:03.477Z,2.80
2018-04-08T15:04:31.016Z,3.10
2018-04-08T15:06:58.687Z,3.05
2018-04-08T15:09:26.274Z,2.87
2018-04-08T15:11:53.802Z,3.35
2018-04-08T15:14:22.107Z,2.97
2018-04-08T15:16:49.631Z,2.80
2018-04-08T15:19:17.167Z,2.72
2018-04-08T15:21:44.668Z,2.62
2018-04-08T15:24:12.213Z,2.55
2018-04-08T15:26:39.715Z,3.10
2018-04-08T15:29:07.287Z,2.97
2018-04-08T15:31:34.903Z,3.03
2018-04-08T15:34:03.229Z,2.83
2018-04-08T15:36:30.799Z,3.47
2018-04-08T15:38:58.358Z,3.22
2018-04-08T15:41:25.900Z,3.20
2018-04-08T15:43:54.198Z,3.37
2018-04-08T15:46:21.953Z,2.75
2018-04-08T15:48:50.283Z,2.85
2018-04-08T15:51:17.820Z,2.62
2018-04-08T15:53:45.350Z,3.35
2018-04-08T15:56:12.875Z,2.80
2018-04-08T15:58:40.378Z,3.10
2018-04-08T16:01:07.919Z,2.77
2018-04-08T16:03:35.470Z,3.07
2018-04-08T16:06:03.087Z,2.70
2018-04-08T16:08:30.703Z,3.00
2018-04-08T16:10:58.329Z,2.70
2018-04-08T16:13:25.903Z,2.93
2018-04-08T16:15:53.460Z,3.20
2018-04-08T16:18:21.207Z,3.27
2018-04-08T16:20:48.777Z,2.57
2018-04-08T16:23:17.055Z,3.00
2018-04-08T16:25:45.365Z,2.90
2018-04-08T16:28:13.635Z,2.70
2018-04-08T16:30:41.158Z,2.70
2018-04-08T16:33:08.693Z,2.90
2018-04-08T16:35:36.965Z,2.40
2018-04-08T16:38:04.531Z,2.50
2018-04-08T16:40:32.977Z,3.33
2018-04-08T16:43:00.542Z,2.80
2018-04-08T16:45:29.002Z,2.90
2018-04-08T16:47:56.550Z,2.83
2018-04-08T16:50:24.093Z,2.70
2018-04-08T16:52:51.632Z,2.67
2018-04-08T16:55:19.204Z,2.63
2018-04-08T16:57:46.745Z,2.33
2018-04-08T17:00:15.039Z,3.17
2018-04-08T17:02:43.347Z,2.77
2018-04-08T17:05:10.855Z,2.70
2018-04-08T17:07:38.378Z,3.20
2018-04-08T17:10:06.718Z,2.90
2018-04-08T17:12:34.232Z,2.70
2018-04-08T17:15:02.619Z,2.47
2018-04-08T17:17:30.987Z,2.40
2018-04-08T17:19:59.419Z,2.53
2018-04-08T17:22:26.971Z,2.97
2018-04-08T17:24:55.247Z,2.30
2018-04-08T17:27:23.038Z,3.33
2018-04-08T17:29:50.583Z,2.87
2018-04-08T17:32:18.194Z,2.60
2018-04-08T17:34:46.491Z,2.77
2018-04-08T17:37:14.068Z,2.70
2018-04-08T17:39:41.600Z,2.83
2018-04-08T17:42:09.683Z,2.83
2018-04-08T17:44:37.229Z,2.83
2018-04-08T17:47:04.787Z,2.97
2018-04-08T17:49:32.420Z,2.80
2018-04-08T17:52:00.031Z,2.63
2018-04-08T17:54:27.550Z,2.43
2018-04-08T17:56:55.879Z,2.50
2018-04-08T17:59:23.386Z,3.13
2018-04-08T18:01:50.962Z,3.20
2018-04-08T18:04:19.340Z,2.90
2018-04-08T18:06:46.855Z,3.03
2018-04-08T18:09:15.228Z,3.10
2018-04-08T18:11:42.762Z,3.20
2018-04-08T18:14:11.659Z,3.10
2018-04-08T18:16:39.558Z,2.83
2018-04-08T18:19:07.125Z,2.97
2018-04-08T18:21:34.677Z,2.97
2018-04-08T18:24:02.213Z,2.37
2018-04-08T18:26:29.788Z,3.07
2018-04-08T18:28:57.291Z,2.80
2018-04-08T18:31:24.875Z,2.60
2018-04-08T18:33:53.190Z,2.93
2018-04-08T18:36:20.780Z,3.00
2018-04-08T18:38:48.301Z,3.30
2018-04-08T18:41:15.812Z,3.50
2018-04-08T18:43:44.110Z,3.20
2018-04-08T18:46:12.386Z,2.80
2018-04-08T18:48:39.911Z,3.07
2018-04-08T18:51:07.428Z,2.90
2018-04-08T18:53:39.427Z,3.00
2018-04-08T18:56:15.483Z,3.20
2018-04-08T18:58:43.011Z,2.93
2018-04-08T19:01:10.510Z,2.90
2018-04-08T19:03:38.024Z,2.87
2018-04-08T19:06:06.231Z,2.50
2018-04-08T19:08:33.796Z,2.90
2018-04-08T19:11:01.500Z,3.07
2018-04-08T19:13:29.088Z,2.97
2018-04-08T19:15:56.638Z,2.90
2018-04-08T19:18:24.156Z,2.93
2018-04-08T19:20:52.464Z,3.97
2018-04-08T19:23:21.208Z,3.50
2018-04-08T19:25:48.724Z,3.33
2018-04-08T19:28:16.315Z,3.73
2018-04-08T19:30:43.886Z,3.87
2018-04-08T19:33:11.754Z,3.67
2018-04-08T19:35:39.300Z,3.60
2018-04-08T19:38:08.348Z,3.70
2018-04-08T19:40:35.886Z,3.63
2018-04-08T19:43:04.279Z,3.70
2018-04-08T19:45:32.773Z,3.47
2018-04-08T19:48:00.314Z,3.60
2018-04-08T19:50:27.867Z,3.40
2018-04-08T19:52:55.384Z,3.40
2018-04-08T19:55:23.656Z,3.70
2018-04-08T19:57:51.219Z,3.77
2018-04-08T20:00:18.728Z,3.30
2018-04-08T20:02:46.279Z,3.50
2018-04-08T20:05:14.564Z,4.10
2018-04-08T20:07:42.867Z,4.37
2018-04-08T20:10:11.139Z,3.60
2018-04-08T20:12:43.099Z,3.70
2018-04-08T20:15:10.703Z,3.70
2018-04-08T20:17:38.980Z,4.20
2018-04-08T20:20:07.288Z,3.80
2018-04-08T20:22:34.834Z,4.00
2018-04-08T20:25:03.329Z,4.00
2018-04-08T20:27:31.901Z,3.80
2018-04-08T20:29:59.531Z,3.73
2018-04-08T20:32:27.063Z,3.83
2018-04-08T20:34:55.360Z,3.60
2018-04-08T20:37:23.654Z,4.10
2018-04-08T20:39:51.991Z,3.80
2018-04-08T20:42:19.528Z,3.80
2018-04-08T20:44:47.165Z,3.80
2018-04-08T20:47:14.672Z,3.90
2018-04-08T20:49:42.191Z,3.67
2018-04-08T20:52:09.731Z,3.93
2018-04-08T20:54:37.291Z,3.67
2018-04-08T20:57:04.863Z,3.33
2018-04-08T20:59:32.712Z,3.63
2018-04-08T21:02:01.006Z,3.77
2018-04-08T21:04:28.564Z,3.43
2018-04-08T21:06:56.872Z,3.53
2018-04-08T21:09:24.386Z,3.60
2018-04-08T21:11:51.898Z,3.97
2018-04-08T21:14:20.226Z,3.70
2018-04-08T21:16:47.745Z,3.27
2018-04-08T21:19:15.252Z,3.17
2018-04-08T21:21:42.831Z,3.53
2018-04-08T21:24:10.342Z,3.33
2018-04-08T21:26:37.851Z,3.50
2018-04-08T21:29:06.163Z,3.43
2018-04-08T21:31:33.695Z,3.47
2018-04-08T21:34:02.028Z,3.80
2018-04-08T21:36:29.619Z,3.03
2018-04-08T21:38:57.132Z,3.47
2018-04-08T21:41:25.427Z,3.20
2018-04-08T21:43:53.699Z,3.03
2018-04-08T21:46:21.237Z,3.10
2018-04-08T21:48:48.923Z,2.87
2018-04-08T21:51:16.439Z,3.30
2018-04-08T21:53:43.994Z,3.07
2018-04-08T21:56:12.271Z,3.60
2018-04-08T21:58:39.804Z,3.33
2018-04-08T22:01:07.319Z,3.53
2018-04-08T22:03:35.656Z,3.63
2018-04-08T22:06:03.284Z,3.20
2018-04-08T22:08:31.641Z,3.37
2018-04-08T22:10:59.307Z,2.80
2018-04-08T22:13:26.839Z,3.07
2018-04-08T22:15:54.822Z,3.03
2018-04-08T22:18:22.380Z,3.00
2018-04-08T22:20:50.656Z,3.00
2018-04-08T22:23:18.216Z,3.27
2018-04-08T22:25:46.149Z,3.13
2018-04-08T22:28:13.675Z,2.70
2018-04-08T22:30:41.967Z,3.03
2018-04-08T22:33:10.244Z,2.93
2018-04-08T22:35:37.771Z,2.97
2018-04-08T22:38:05.350Z,3.43
2018-04-08T22:40:33.665Z,2.80
2018-04-08T22:43:01.310Z,3.07
2018-04-08T22:45:28.873Z,3.10
2018-04-08T22:47:56.406Z,3.17
2018-04-08T22:50:24.732Z,3.10
2018-04-08T22:52:52.256Z,3.17
2018-04-08T22:55:20.687Z,3.03
2018-04-08T22:57:48.228Z,3.10
2018-04-08T23:00:22.216Z,3.00
2018-04-08T23:02:49.739Z,3.00
2018-04-08T23:05:17.288Z,2.70
2018-04-08T23:07:45.558Z,2.90
2018-04-08T23:10:13.074Z,2.80
2018-04-08T23:12:40.615Z,2.70
2018-04-08T23:15:08.887Z,2.70
2018-04-08T23:17:36.414Z,2.80
2018-04-08T23:20:04.098Z,3.13
2018-04-08T23:22:32.251Z,2.97
2018-04-08T23:24:59.898Z,3.07
2018-04-08T23:27:28.784Z,3.00
2018-04-08T23:29:56.371Z,3.23
2018-04-08T23:32:23.886Z,3.07
2018-04-08T23:34:51.444Z,3.00
2018-04-08T23:37:18.989Z,3.00
2018-04-08T23:39:47.305Z,2.93
2018-04-08T23:42:14.821Z,2.93
2018-04-08T23:44:42.351Z,2.90
2018-04-08T23:47:09.883Z,2.80
2018-04-08T23:49:37.439Z,3.03
2018-04-08T23:52:05.099Z,3.00
2018-04-08T23:54:32.660Z,2.97
2018-04-08T23:57:00.345Z,2.97
2018-04-08T23:59:28.616Z,2.47
